ADDS TAF Data INFO
IDs: Format: Raw Decoded Include METARs

Data at: 1509 UTC 16 Jan 2018

Region: TOP
KATL 161338Z 1614/1718 20004KT P6SM SCT200
  FM161600 24007KT P6SM FEW040 SCT120 BKN200
  FM162100 27010KT P6SM SCT015 BKN035 OVC100
  FM170000 32012G20KT 5SM -SN OVC015
  FM170600 32014G24KT P6SM BKN040 BKN100
  FM171200 32016G26KT P6SM SKC


KBOS 161124Z 1612/1718 34005KT P6SM BKN030
  FM161600 00000KT P6SM BKN035
  FM162000 18005KT P6SM OVC035
  FM170700 16004KT 2SM -SN OVC010
  FM171000 04005KT 1SM -SN OVC008
  FM171200 04005KT 1/2SM SN OVC003
  FM171700 03007KT 1 1/2SM -SNRA OVC003


KBWI 161443Z 1615/1718 00000KT 1SM BR OVC003
  FM161700 VRB03KT 5SM BR BKN025
  FM162100 VRB03KT P6SM OVC015
  FM170500 33005KT 2SM -SN OVC010
  FM171200 32009KT P6SM OVC025
  FM171500 32012G19KT P6SM OVC050


KCLE 161132Z 1612/1718 24007KT P6SM -SN OVC015
  TEMPO 1615/1618 SCT015 OVC020
  FM161800 24008KT P6SM BKN025
  FM170600 23006KT P6SM BKN015
  FM171400 23006KT P6SM BKN020
  FM171600 24008KT P6SM BKN035


KCLT 161439Z 1615/1718 17005KT P6SM FEW250
  FM161700 21006KT P6SM SCT250
  FM170100 19004KT P6SM SCT050 BKN100
  PROB30 1705/1707 4SM -RASN OVC025
  FM170700 31005KT 2SM -SN SCT007 BKN012
  FM171300 36009KT P6SM -SN OVC023
  FM171600 36009KT P6SM BKN035


KCVG 161459Z 1615/1718 28007KT P6SM SCT015 BKN100
  TEMPO 1615/1616 BKN015
  FM161900 27007KT P6SM SCT025
  TEMPO 1619/1623 BKN025
  FM162300 26005KT P6SM OVC022
  FM170800 26004KT P6SM OVC015
  FM171600 27007KT P6SM BKN022


KDCA 161443Z 1615/1718 16004KT P6SM OVC009
  FM161800 VRB03KT P6SM OVC100
  FM170500 34005KT P6SM OVC015
  FM170700 33007KT 4SM -SN OVC008
  FM171100 33010G18KT 3SM -SN OVC008
  FM171300 33013G21KT P6SM OVC050


KDEN 161459Z 1615/1718 18008KT P6SM FEW220
  FM161800 14008KT P6SM FEW220
  FM162200 09008KT P6SM FEW220
  FM170200 19011KT P6SM SKC
  FM171600 24007KT P6SM FEW200


KDFW 161456Z 1615/1718 36016KT P6SM BKN110
  FM170000 01007KT P6SM SKC


KDTW 161437Z 1615/1718 24007KT 3SM -SN BKN020
  FM161700 26007KT 6SM -SN BKN020
  FM162200 23006KT 3SM -SHSN BKN020
  FM170100 26007KT P6SM BKN025
  FM170800 23004KT P6SM BKN035


KEWR 161335Z 1614/1718 VRB04KT P6SM OVC015
  TEMPO 1614/1616 SCT015 BKN030
  FM162100 15006KT P6SM OVC015
  FM170000 VRB04KT P6SM OVC015
  PROB30 1700/1705 6SM -SN
  FM170500 VRB04KT 5SM -SN OVC010
  FM170800 VRB05KT 1 1/2SM -SN BR OVC008
  FM171500 33009KT 2SM -SN BR OVC010


KFLL 161507Z 1615/1718 05012KT P6SM SCT040
  FM170200 03008KT P6SM SCT040
  FM170900 34006KT P6SM SCT030


KIAD 161443Z 1615/1718 00000KT P6SM OVC009
  FM161800 17004KT P6SM BKN035
  FM162100 11004KT P6SM OVC060
  FM170600 33010G18KT 2SM -SN OVC015
  FM171200 33010G18KT P6SM OVC025
  FM171500 33013G22KT P6SM OVC050


KIAH 161126Z 1612/1718 35015G25KT 6SM -RAPL BR BKN008 OVC012
  FM161400 35017G27KT 5SM -FZRASNPL BR SCT008 OVC012
  FM161600 36017G27KT 5SM -SNPL BR OVC015
  FM162000 36016KT P6SM -SN BKN017 OVC022
  FM162300 35012KT P6SM OVC050
  FM170700 35006KT P6SM SKC
  FM171500 02010KT P6SM SKC


KJFK 161335Z 1614/1718 VRB05KT P6SM OVC015
  TEMPO 1614/1616 SCT015 BKN030
  FM161600 15006KT P6SM OVC015
  PROB30 1702/1705 6SM -SN
  FM170500 VRB04KT 5SM -SN OVC010
  FM170800 06006KT 2SM -RASN OVC008
  FM171400 34009KT 1 1/2SM -SN BR OVC008


KLAS 161443Z 1615/1718 22005KT P6SM BKN200
  FM161600 VRB04KT P6SM BKN200
  FM162000 09005KT P6SM BKN250
  FM170300 22005KT P6SM SCT250
  FM171600 VRB04KT P6SM FEW250


KLAX 161444Z 1615/1718 00000KT 3SM BR BKN004 BKN120
  FM161630 VRB03KT 5SM BR SCT007
  FM161800 VRB03KT P6SM SCT010
  FM162000 26010KT P6SM BKN200
  FM170300 VRB03KT P6SM SCT200


KLGA 161335Z 1614/1718 08006KT P6SM OVC010
  TEMPO 1614/1616 SCT015 BKN030
  FM161600 14006KT P6SM OVC015
  FM170200 08006KT P6SM OVC015
  PROB30 1702/1705 6SM -SN
  FM170500 06006KT 5SM -SN OVC010
  FM170800 04007KT 2SM -RASN OVC008
  FM171400 34008KT 1 1/2SM -SN BR OVC008


KMCO 161500Z 1615/1718 03009KT P6SM FEW040
  FM162300 02006KT P6SM SCT250
  FM171500 34012KT P6SM SCT040 BKN100


KMDW 161502Z 1615/1718 29010KT 4SM -SN BKN025 OVC035
  TEMPO 1615/1618 1SM -SN BKN015
  FM161900 32013KT P6SM BKN018
  FM162300 29008KT P6SM BKN035
  FM170600 27008KT P6SM FEW007 SCT120 BKN180
  FM171300 25014KT P6SM SCT070 BKN120


KMEM 161328Z 1613/1718 35009KT P6SM VCSH SCT008 OVC050
  FM161400 36011KT P6SM OVC040
  FM161800 35007KT P6SM BKN035 OVC100
  FM170100 35004KT P6SM OVC050
  FM171500 35005KT P6SM SCT050 SCT100


KMIA 161507Z 1615/1718 05011KT P6SM SCT040
  FM170100 03006KT P6SM SCT040
  FM170800 34006KT P6SM SCT030


KMSP 161454Z 1615/1718 32010KT P6SM BKN015
  FM161800 30007KT P6SM SCT018
  FM162200 25004KT P6SM SCT020 BKN050
  FM170400 22005KT P6SM SCT250
  FM170900 20005KT P6SM SKC


KORD 161502Z 1615/1718 32012KT 6SM -SN SCT015 BKN060
  TEMPO 1615/1618 2SM -SN BKN015
  FM161800 32013KT P6SM BKN018
  FM162300 30008KT P6SM BKN035
  FM170600 27008KT P6SM FEW007 SCT120 BKN180
  FM171300 25014KT P6SM SCT070 BKN120


KPDX 161454Z 1615/1712 11007KT P6SM VCSH BKN040 BKN060
  FM161700 12007KT P6SM SCT070
  FM170200 10007KT P6SM SCT250
  FM171000 10009KT P6SM -RA SCT050 OVC080


KPHL 161401Z 1614/1718 09005KT P6SM SCT025 OVC040
  TEMPO 1614/1616 OVC025
  FM161600 15004KT P6SM SCT015 BKN035
  FM170100 07004KT P6SM OVC015
  FM170500 02004KT 1SM -SN OVC005
  FM171000 34010KT 2SM -SN OVC008
  FM171400 31012G22KT P6SM BKN025


KPHX 161459Z 1615/1718 11005KT P6SM FEW150 SCT180 BKN250
  FM161700 09010G20KT P6SM SCT150 OVC250
  FM162200 09007KT P6SM SCT150 OVC250
  FM170600 10005KT P6SM SCT250


KPIT 161357Z 1614/1718 24005KT 3SM -SN SCT018 OVC035
  FM161800 24007KT 6SM -SN SCT015 BKN025
  FM170100 28010KT P6SM OVC025


KSAN 161508Z 1615/1718 30007KT P6SM FEW003 BKN200

KSEA 161321Z 1613/1718 22005KT P6SM VCSH FEW010 BKN025 OVC050
  TEMPO 1613/1615 5SM -SHRA BR BKN010
  FM161500 18010KT P6SM VCSH BKN025 OVC050
  FM162100 16009G20KT P6SM VCSH SCT025 BKN040
  FM170400 16008KT P6SM SCT040 SCT120 BKN200


KSFO 161502Z 1615/1718 00000KT 6SM BR FEW008 OVC017
  FM161800 27005KT P6SM BKN020
  FM162000 27004KT P6SM SCT025 BKN050
  FM162100 33004KT P6SM SCT050 BKN150
  FM170400 05004KT P6SM SCT150


KSLC 161501Z 1615/1718 10004KT P6SM FEW200
  FM161900 33005KT P6SM SCT100 BKN200
  FM170100 35005KT P6SM BKN100 BKN200
  FM170800 15004KT P6SM SCT100


KSTL 161455Z 1615/1718 29013KT P6SM BKN035
  TEMPO 1615/1617 BKN030
  FM161700 29011KT P6SM BKN025
  FM162100 30011KT P6SM BKN035
  FM170200 30007KT P6SM BKN050
  FM170600 30007KT P6SM SCT120


KTPA 161459Z 1615/1718 04007KT P6SM SKC
  FM161900 33007KT P6SM SCT050
  FM170200 VRB04KT P6SM SKC
  TEMPO 1709/1713 5SM BR SCT005
  FM171500 32012G18KT P6SM BKN035